Latest Coastal Weather Observations for Portland Airport

IDV60701

Issued at 6:51 pm EST Tuesday 22 August 2017 (issued every 10 minutes, with the page automatically refreshed every 10 minutes)

About coastal observations | Map of coastal stations | Coastal observations for VIC | Marine services | Other Formats
Station Details ID: 090171 Name: CASHMORE AIRPORT Lat: -38.31 Lon: 141.47 Height: 80.9 m
Data from the previous 72 hours. | See also: Recent months at Portland Airport
Date/Time
EST
Temp
°C
Wind Pressure Rain since
9am
mm
Weather Cloud Vis
km
Sea
Height
m
Swell
Dir  Spd
kts
Gust
kts
hPa Trend Height
m
Period
s
Dir
22/06:30pm 11.6 NW 8 12 1017.9 - 0.0 - Partly cloudy 10 - - - -
22/06:00pm 12.2 WNW 11 15 1017.9 - 0.0 - Cloudy 10 - - - -
22/05:30pm 13.0 WNW 12 17 1017.7 - 0.0 - Cloudy 10 - - - -
22/05:00pm 13.1 WNW 12 18 1017.6 - 0.0 - Partly cloudy 10 - - - -
22/04:30pm 13.9 WNW 15 21 1017.4 - 0.0 - - 10 - - - -
22/04:00pm 14.0 WNW 15 23 1017.2 - 0.0 - - 10 - - - -
22/03:30pm 14.2 WNW 13 20 1017.1 - 0.0 - Partly cloudy 10 - - - -
22/03:00pm 13.8 WNW 12 20 1017.1 - 0.0 - Partly cloudy 10 - - - -
22/02:30pm 13.9 WNW 15 18 1017.3 - 0.0 - Partly cloudy 10 - - - -
22/02:00pm 14.1 WNW 15 20 1017.3 - 0.0 - Partly cloudy 10 - - - -
22/01:30pm 14.0 WNW 12 17 1017.4 - 0.0 - Partly cloudy 10 - - - -
22/01:00pm 14.1 WNW 15 23 1017.6 - 0.0 - Partly cloudy 10 - - - -
22/12:30pm 13.4 WNW 14 21 1018.0 - 0.0 - Partly cloudy 10 - - - -
22/12:00pm 14.1 NW 10 15 1018.2 - 0.0 - Cloudy 10 - - - -
22/11:30am 13.3 NNW 11 15 1018.4 - 0.0 - Partly cloudy 10 - - - -
22/11:00am 12.6 NW 11 15 1018.5 - 0.0 - Cloudy 10 - - - -
22/10:30am 12.3 NW 10 13 1018.3 - 0.0 - Cloudy 10 - - - -
22/10:00am 11.0 NW 10 14 1018.5 - 0.0 - Cloudy 10 - - - -
22/09:30am 10.1 NNW 7 11 1018.6 - 0.0 - Cloudy 10 - - - -
22/09:00am 9.1 NNW 7 9 1018.4 - 0.8 - Mostly cloudy 10 - - - -
22/08:30am 8.8 NW 7 13 1018.3 - 0.8 - Partly cloudy 8 - - - -
22/08:25am 9.3 NW 8 13 1018.2 - 0.8 - Partly cloudy 7 - - - -
22/08:00am 9.0 NW 8 10 1017.9 - 0.8 - Partly cloudy 10 - - - -
22/07:53am 9.0 WNW 8 10 1017.8 - 0.8 - Partly cloudy 8 - - - -
22/07:35am 7.9 NNW 7 9 1017.6 - 0.4 - Partly cloudy 6 - - - -
22/07:34am 7.9 NNW 7 9 1017.6 - 0.4 - Partly cloudy 7 - - - -
22/07:30am 7.8 NNW 7 9 1017.5 - 0.2 - Partly cloudy 10 - - - -
22/07:00am 7.4 NNW 8 10 1017.0 - 0.2 - Partly cloudy 10 - - - -
22/06:30am 7.0 N 7 8 1016.8 - 0.2 - Partly cloudy 10 - - - -
22/06:00am 7.7 N 7 8 1016.7 - 0.2 Recent precip. Cloudy 10 - - - -
22/05:44am 8.1 N 7 9 1016.6 - 0.2 - Partly cloudy 10 - - - -
22/05:30am 8.7 NNW 7 10 1016.6 - 0.2 - Partly cloudy 5 - - - -
22/05:03am 8.9 NW 9 12 1016.5 - 0.0 - Partly cloudy 6 - - - -
22/05:00am 8.9 NW 8 12 1016.5 - 0.0 - Partly cloudy 10 - - - -
22/04:30am 7.8 NNW 6 7 1016.3 - 0.0 - Partly cloudy 10 - - - -
22/04:00am 7.8 NNW 8 10 1016.3 - 0.0 - Partly cloudy 10 - - - -
22/03:30am 7.7 NNW 7 10 1016.3 - 0.0 - Partly cloudy 10 - - - -
22/03:00am 6.8 N 6 8 1016.3 - 0.0 - Cloudy 10 - - - -
22/02:30am 6.3 N 6 9 1016.3 - 0.0 - Cloudy 10 - - - -
22/02:00am 5.9 N 6 6 1016.6 - 0.0 - Partly cloudy 10 - - - -
22/01:30am 4.4 N 5 7 1016.6 - 0.0 - - 10 - - - -
22/01:00am 4.5 N 5 6 1016.6 - 0.0 - - 10 - - - -
22/12:30am 4.2 N 5 6 1016.6 - 0.0 - - 10 - - - -
22/12:00am 4.4 NW 4 5 1016.7 - 0.0 - - 10 - - - -
 
Date/Time
EST
Temp
°C
Wind Pressure Rain since
9am
mm
Weather Cloud Vis
km
Sea
Height
m
Swell
Dir  Spd
kts
Gust
kts
hPa Trend Height
m
Period
s
Dir
21/11:30pm 5.0 N 6 7 1016.4 - 0.0 - - 10 - - - -
21/11:00pm 5.6 N 6 7 1016.3 - 0.0 - - 10 - - - -
21/10:30pm 5.7 N 3 5 1016.4 - 0.0 - - 10 - - - -
21/10:00pm 5.5 NW 3 5 1016.4 - 0.0 - - 10 - - - -
21/09:30pm 5.8 NW 1 3 1016.4 - 0.0 - - 10 - - - -
21/09:00pm 6.5 NW 3 4 1016.0 - 0.0 - Mostly clear 10 - - - -
21/08:30pm 6.8 CALM 0 0 1015.6 - 0.0 - Partly cloudy 10 - - - -
21/08:00pm 7.1 CALM 0 0 1015.1 - 0.0 - Partly cloudy 10 - - - -
21/07:30pm 7.8 CALM 0 0 1015.1 - 0.0 - Cloudy 10 - - - -
21/07:00pm 8.0 CALM 0 0 1014.7 - 0.0 - Cloudy 10 - - - -
21/06:30pm 8.8 CALM 0 0 1014.4 - 0.0 - Partly cloudy 10 - - - -
21/06:00pm 10.2 WSW 4 5 1013.9 - 0.0 - Mostly cloudy 10 - - - -
21/05:30pm 11.7 WSW 5 7 1013.4 - 0.0 - Cloudy 10 - - - -
21/05:00pm 11.3 WSW 4 6 1013.0 - 0.0 - Partly cloudy 10 - - - -
21/04:30pm 11.9 WSW 6 9 1012.7 - 0.0 - Cloudy 10 - - - -
21/04:00pm 11.6 WSW 4 6 1012.6 - 0.0 - Cloudy 10 - - - -
21/03:30pm 11.7 W 6 7 1012.2 - 0.0 - Partly cloudy 10 - - - -
21/03:00pm 12.3 N 5 9 1011.8 - 0.0 - Mostly clear 10 - - - -
21/02:30pm 12.1 N 6 9 1011.8 - 0.0 - - 10 - - - -
21/02:00pm 12.3 N 7 10 1011.8 - 0.0 - Partly cloudy 10 - - - -
21/01:30pm 11.6 NNE 7 10 1011.9 - 0.0 - Cloudy 10 - - - -
21/01:00pm 11.4 N 8 11 1012.2 - 0.0 - Cloudy 10 - - - -
21/12:30pm 10.0 NNE 8 11 1012.4 - 0.0 - Cloudy 10 - - - -
21/12:00pm 9.6 N 8 12 1012.7 - 0.0 - Mostly cloudy 10 - - - -
21/11:30am 9.3 NNE 9 13 1012.8 - 0.0 - Partly cloudy 10 - - - -
21/11:00am 8.4 NNE 9 13 1012.9 - 0.0 - Cloudy 10 - - - -
21/10:30am 7.6 NNE 8 11 1013.1 - 0.0 - Cloudy 10 - - - -
21/10:00am 6.5 NNE 7 12 1013.4 - 0.0 - Partly cloudy 10 - - - -
21/09:30am 6.3 NE 7 11 1013.6 - 0.0 - Partly cloudy 10 - - - -
21/09:25am 6.1 NE 7 11 1013.5 - 0.0 - Partly cloudy 10 - - - -
21/09:00am 5.8 ENE 5 9 1013.4 - 3.6 - Cloudy 10 - - - -
21/08:37am 5.6 ENE 7 11 1013.3 - 3.6 - Partly cloudy 10 - - - -
21/08:30am 5.6 ENE 7 10 1013.2 - 3.6 - Partly cloudy 10 - - - -
21/08:00am 5.4 ENE 6 9 1013.2 - 3.6 - Partly cloudy 10 - - - -
21/07:30am 5.4 NE 6 9 1013.1 - 3.4 - Cloudy 10 - - - -
21/07:00am 5.5 NE 6 9 1013.0 - 3.2 - Partly cloudy 10 - - - -
21/06:30am 5.5 NE 7 10 1012.8 - 3.0 - Cloudy 10 - - - -
21/06:00am 5.6 NE 8 12 1012.7 - 2.6 Rain Cloudy 10 - - - -
21/05:30am 5.7 NE 6 10 1012.8 - 2.2 - Partly cloudy 10 - - - -
21/05:00am 5.6 NE 7 11 1012.8 - 2.2 - Cloudy 10 - - - -
21/04:30am 5.8 NE 7 12 1013.1 - 2.0 - Partly cloudy 10 - - - -
21/04:00am 5.8 NE 6 9 1013.4 - 1.8 - Partly cloudy 10 - - - -
21/03:30am 5.9 NNE 9 13 1014.0 - 1.6 - Partly cloudy 10 - - - -
21/03:00am 6.3 NNE 9 15 1014.3 - 0.8 Recent precip. Cloudy 10 - - - -
21/02:30am 6.9 N 9 13 1014.6 - 0.2 - Partly cloudy 10 - - - -
21/02:00am 6.4 NE 5 7 1014.8 - 0.0 - Partly cloudy 10 - - - -
21/01:30am 6.7 NNE 7 10 1015.1 - 0.0 - Partly cloudy 10 - - - -
21/01:00am 6.8 NNE 7 10 1015.7 - 0.0 - Partly cloudy 10 - - - -
21/12:30am 7.0 ENE 5 7 1015.9 - 0.0 - Partly cloudy 10 - - - -
21/12:00am 7.1 ENE 5 8 1016.3 - 0.0 - Cloudy 10 - - - -
 
Date/Time
EST
Temp
°C
Wind Pressure Rain since
9am
mm
Weather Cloud Vis
km
Sea
Height
m
Swell
Dir  Spd
kts
Gust
kts
hPa Trend Height
m
Period
s
Dir
20/11:30pm 6.9 E 4 5 1016.7 - 0.0 - Partly cloudy 10 - - - -
20/11:00pm 7.3 ENE 5 7 1017.0 - 0.0 - Cloudy 10 - - - -
20/10:30pm 7.3 NE 4 6 1017.5 - 0.0 - Cloudy 10 - - - -
20/10:00pm 7.2 NE 5 6 1017.4 - 0.0 - Partly cloudy 10 - - - -
20/09:30pm 7.1 ENE 5 7 1017.5 - 0.0 - - 10 - - - -
20/09:00pm 7.3 ENE 5 7 1017.5 - 0.0 - Cloudy 10 - - - -
20/08:30pm 7.2 ENE 4 5 1017.8 - 0.0 - - 10 - - - -
20/08:00pm 7.2 ENE 5 7 1017.8 - 0.0 - Partly cloudy 10 - - - -
20/07:30pm 7.2 E 4 5 1018.3 - 0.0 - Partly cloudy 10 - - - -
20/07:00pm 7.4 E 3 4 1018.7 - 0.0 - Partly cloudy 10 - - - -
20/06:30pm 7.7 E 2 4 1018.7 - 0.0 - - 10 - - - -
20/06:00pm 8.3 E 5 8 1019.3 - 0.0 - Cloudy 10 - - - -
20/05:30pm 8.8 E 4 5 1018.7 - 0.0 - Partly cloudy 10 - - - -
20/05:00pm 9.1 E 4 6 1019.0 - 0.0 - Cloudy 10 - - - -
20/04:30pm 9.4 NE 4 6 1019.7 - 0.0 - - 10 - - - -
20/04:00pm 9.7 NNE 5 8 1019.7 - 0.0 - - 10 - - - -
20/03:30pm 9.9 N 6 9 1020.2 - 0.0 - - 10 - - - -
20/03:00pm 10.3 N 8 11 1020.5 - 0.0 - Mostly cloudy 10 - - - -
20/02:30pm 10.6 N 8 11 1020.5 - 0.0 - - 10 - - - -
20/02:00pm 10.5 NNE 8 11 1020.5 - 0.0 - - 10 - - - -
20/01:30pm 10.9 NNE 8 12 1021.2 - 0.0 - - 10 - - - -
20/01:00pm 10.7 NNE 7 10 1021.9 - 0.0 - - 10 - - - -
20/12:30pm 10.0 NE 7 9 1022.8 - 0.0 - - 10 - - - -
20/12:00pm 10.2 NNE 7 9 1023.5 - 0.0 - Partly cloudy 10 - - - -
20/11:30am 9.5 N 7 11 1024.9 - 0.0 - - 10 - - - -
20/11:00am 8.9 N 7 11 1025.2 - 0.0 - - 10 - - - -
20/10:30am 8.3 N 9 12 1025.4 - 0.0 - - 10 - - - -
20/10:00am 7.5 N 7 11 1025.9 - 0.0 - - 10 - - - -
20/09:30am 7.0 N 7 10 1026.3 - 0.0 - - 10 - - - -
20/09:00am 5.9 N 7 9 1026.5 - 0.0 - - 10 - - - -
20/08:30am 4.5 N 7 10 1026.6 - 0.0 - - 10 - - - -
20/08:00am 3.1 N 6 9 1026.7 - 0.0 - - 10 - - - -
20/07:30am 2.3 N 6 8 1026.8 - 0.0 - - 10 - - - -
20/07:00am 2.4 N 6 8 1026.8 - 0.0 - - 10 - - - -
20/06:30am 2.3 N 6 8 1026.6 - 0.0 - - 10 - - - -
20/06:00am 2.2 N 6 7 1026.6 - 0.0 - - 10 - - - -
20/05:30am 2.2 N 6 8 1026.6 - 0.0 - - 10 - - - -
20/05:00am 2.4 N 6 7 1026.6 - 0.0 - - 10 - - - -
20/04:30am 2.4 N 6 7 1026.6 - 0.0 - - 10 - - - -
20/04:00am 2.8 N 6 7 1026.8 - 0.0 - - 10 - - - -
20/03:30am 3.1 N 6 7 1026.8 - 0.0 - - 10 - - - -
20/03:00am 3.1 N 6 7 1027.1 - 0.0 - - 10 - - - -
20/02:30am 3.8 N 6 7 1027.0 - 0.0 - - 10 - - - -
20/02:00am 3.9 N 6 7 1027.3 - 0.0 - Partly cloudy 10 - - - -
20/01:30am 3.7 NNW 7 8 1027.3 - 0.0 - - 10 - - - -
20/01:00am 4.2 N 7 7 1027.4 - 0.0 - - 10 - - - -
20/12:30am 4.1 NNW 5 7 1027.6 - 0.0 - Partly cloudy 10 - - - -
20/12:00am 4.0 N 7 7 1027.7 - 0.0 - Mostly clear 10 - - - -
 
Date/Time
EST
Temp
°C
Wind Pressure Rain since
9am
mm
Weather Cloud Vis
km
Sea
Height
m
Swell
Dir  Spd
kts
Gust
kts
hPa Trend Height
m
Period
s
Dir
19/11:30pm 4.1 N 7 8 1027.8 - 0.0 - Partly cloudy 10 - - - -
19/11:00pm 5.3 N 5 6 1028.1 - 0.0 - Partly cloudy 10 - - - -
19/10:30pm 6.1 NNW 6 7 1028.4 - 0.0 - Partly cloudy 10 - - - -
19/10:00pm 5.5 S 5 6 1028.6 - 0.0 - Cloudy 10 - - - -
19/09:30pm 5.5 S 2 4 1028.7 - 0.0 - Cloudy 10 - - - -
19/09:00pm 5.2 CALM 0 3 1028.8 - 0.0 - Mostly cloudy 10 - - - -
19/08:30pm 4.7 S 2 3 1028.8 - 0.0 - Partly cloudy 10 - - - -
19/08:00pm 6.0 CALM 0 3 1028.5 - 0.0 - Partly cloudy 10 - - - -
19/07:30pm 6.7 S 2 4 1028.4 - 0.0 - Cloudy 10 - - - -
19/07:00pm 7.1 CALM 0 0 1028.3 - 0.0 - Partly cloudy 10 - - - -

Other Formats:

Comma delimited format used in spreadsheet applications
http://www.bom.gov.au/fwo/IDV60701/IDV60701.94828.axf

JavaScript Object Notation format (JSON) in row-major order
http://www.bom.gov.au/fwo/IDV60701/IDV60701.94828.json